Aroab B Airport


Codes: FYAB/
Name: Aroab B Airport
City: Aroab
Country: Namibia
Elevation: 3235 ft.

Photos at Aroab B Airport


   Photos courtesy of SpottingLog. You can add your own sightings and photos by signing up for a free trial today.



No photos found.

Weather at Aroab B Airport


Time (UTC)DescriptionTempratureWindCloud coverageVisibilityPressureHumidity
23-May-2024 21:00Clear Sky19°C9 mph, N1%10000m1019hPa31%
24-May-2024 00:00Clear Sky18°C11 mph, N1%10000m1019hPa34%
24-May-2024 03:00Clear Sky16°C9 mph, N0%10000m1020hPa38%
24-May-2024 06:00Clear Sky15°C9 mph, NW0%10000m1021hPa40%
24-May-2024 09:00Clear Sky24°C11 mph, N0%10000m1021hPa22%
24-May-2024 12:00Clear Sky27°C9 mph, N0%10000m1017hPa17%
24-May-2024 15:00Clear Sky26°C7 mph, N0%10000m1017hPa17%
24-May-2024 18:00Clear Sky19°C4 mph, N0%10000m1019hPa26%
24-May-2024 21:00Clear Sky18°C9 mph, NE0%10000m1020hPa28%
25-May-2024 00:00Clear Sky16°C11 mph, N0%10000m1020hPa29%
25-May-2024 03:00Clear Sky15°C9 mph, N0%10000m1020hPa30%
25-May-2024 06:00Clear Sky15°C9 mph, NW0%10000m1022hPa28%
25-May-2024 09:00Clear Sky24°C11 mph, NW0%10000m1021hPa18%
25-May-2024 12:00Clear Sky27°C11 mph, NW1%10000m1018hPa13%
25-May-2024 15:00Clear Sky27°C7 mph, NW0%10000m1016hPa13%
25-May-2024 18:00Clear Sky18°C2 mph, NW0%10000m1018hPa22%
25-May-2024 21:00Clear Sky19°C7 mph, N1%10000m1019hPa21%
26-May-2024 00:00Clear Sky16°C4 mph, N2%10000m1020hPa24%
26-May-2024 03:00Few Clouds13°C2 mph, NW18%10000m1019hPa27%
26-May-2024 06:00Few Clouds16°C2 mph, NW11%10000m1021hPa26%
26-May-2024 09:00Clear Sky24°C4 mph, N7%10000m1021hPa15%
26-May-2024 12:00Few Clouds27°C7 mph, N15%10000m1018hPa13%
26-May-2024 15:00Broken Clouds27°C4 mph, N57%10000m1017hPa14%
26-May-2024 18:00Broken Clouds20°C7 mph, N72%10000m1020hPa21%
26-May-2024 21:00Scattered Clouds18°C9 mph, NE27%10000m1021hPa21%
27-May-2024 00:00Few Clouds17°C9 mph, NE21%10000m1021hPa22%
27-May-2024 03:00Broken Clouds16°C9 mph, NE68%10000m1021hPa23%
27-May-2024 06:00Broken Clouds16°C11 mph, NE74%10000m1022hPa25%
27-May-2024 09:00Broken Clouds25°C13 mph, NE61%10000m1021hPa16%
27-May-2024 12:00Broken Clouds28°C11 mph, NE64%10000m1018hPa14%
27-May-2024 15:00Broken Clouds27°C7 mph, N83%10000m1018hPa14%
27-May-2024 18:00Overcast Clouds20°C9 mph, NE91%10000m1020hPa23%
27-May-2024 21:00Overcast Clouds18°C11 mph, NE86%10000m1021hPa26%
28-May-2024 00:00Overcast Clouds17°C11 mph, NE92%10000m1020hPa27%
28-May-2024 03:00Overcast Clouds15°C11 mph, N100%10000m1021hPa29%
28-May-2024 06:00Broken Clouds15°C11 mph, N80%10000m1022hPa29%
28-May-2024 09:00Clear Sky25°C18 mph, N0%10000m1020hPa16%
28-May-2024 12:00Clear Sky29°C16 mph, N0%10000m1017hPa12%
28-May-2024 15:00Clear Sky28°C11 mph, N0%10000m1016hPa13%
28-May-2024 18:00Clear Sky21°C11 mph, NE0%10000m1018hPa21%